createdAt,value
2022-09-20T00:02:31.058Z,100543.36
2022-09-20T00:05:03.696Z,100546.29
2022-09-20T00:07:35.675Z,100548.66
2022-09-20T00:10:13.678Z,100552.89
2022-09-20T00:12:45.504Z,100555.04
2022-09-20T00:15:18.352Z,100552.10
2022-09-20T00:17:50.115Z,100549.36
2022-09-20T00:20:25.253Z,100550.84
2022-09-20T00:22:57.028Z,100552.05
2022-09-20T00:25:29.613Z,100559.66
2022-09-20T00:28:01.402Z,100564.20
2022-09-20T00:30:41.483Z,100560.58
2022-09-20T00:33:13.190Z,100561.11
2022-09-20T00:35:48.331Z,100563.89
2022-09-20T00:38:20.231Z,100565.05
2022-09-20T00:40:54.484Z,100563.55
2022-09-20T00:43:40.306Z,100565.52
2022-09-20T00:46:24.386Z,100565.81
2022-09-20T00:49:01.003Z,100568.30
2022-09-20T00:51:39.824Z,100570.39
2022-09-20T00:54:20.077Z,100571.59
2022-09-20T00:56:53.470Z,100573.79
2022-09-20T00:59:28.161Z,100575.85
2022-09-20T01:02:04.684Z,100572.60
2022-09-20T01:04:38.313Z,100580.20
2022-09-20T01:07:12.227Z,100581.84
2022-09-20T01:09:44.152Z,100577.61
2022-09-20T01:12:19.966Z,100580.02
2022-09-20T01:14:54.276Z,100579.55
2022-09-20T01:17:29.177Z,100581.20
2022-09-20T01:20:12.619Z,100581.70
2022-09-20T01:22:59.736Z,100583.48
2022-09-20T01:25:51.296Z,100581.79
2022-09-20T01:28:25.092Z,100582.39
2022-09-20T01:31:04.641Z,100582.00
2022-09-20T01:33:47.460Z,100582.98
2022-09-20T01:36:25.066Z,100579.70
2022-09-20T01:39:13.555Z,100579.96
2022-09-20T01:41:50.420Z,100584.59
2022-09-20T01:44:33.356Z,100587.67
2022-09-20T01:47:12.085Z,100585.70
2022-09-20T01:49:55.662Z,100588.73
2022-09-20T01:52:46.403Z,100588.64
2022-09-20T01:55:48.998Z,100593.17
2022-09-20T01:59:07.166Z,100594.39
2022-09-20T02:02:07.397Z,100596.58
2022-09-20T02:05:06.010Z,100596.98
2022-09-20T02:08:03.367Z,100599.39
2022-09-20T02:10:49.542Z,100596.20
2022-09-20T02:13:33.322Z,100596.11
2022-09-20T02:16:37.406Z,100598.29
2022-09-20T02:19:29.557Z,100597.13
2022-09-20T02:22:19.243Z,100595.91
2022-09-20T02:25:01.313Z,100598.89
2022-09-20T02:27:43.184Z,100599.41
2022-09-20T02:30:32.775Z,100598.63
2022-09-20T02:33:21.162Z,100605.14
2022-09-20T02:36:15.849Z,100606.39
2022-09-20T02:39:00.677Z,100603.98
2022-09-20T02:41:54.181Z,100600.25
2022-09-20T02:44:58.617Z,100605.90
2022-09-20T02:47:38.504Z,100611.91
2022-09-20T02:50:27.266Z,100613.44
2022-09-20T02:53:13.495Z,100611.73
2022-09-20T02:55:55.245Z,100614.48
2022-09-20T02:58:47.658Z,100620.13
2022-09-20T03:01:35.904Z,100621.13
2022-09-20T03:04:24.703Z,100619.40
2022-09-20T03:07:04.866Z,100622.77
2022-09-20T03:09:46.019Z,100621.36
2022-09-20T03:12:38.317Z,100621.46
2022-09-20T03:15:21.168Z,100617.66
2022-09-20T03:18:02.441Z,100618.87
2022-09-20T03:24:58.442Z,100619.34
2022-09-20T03:27:39.623Z,100619.43
2022-09-20T03:30:28.859Z,100619.14
2022-09-20T03:33:12.883Z,100620.20
2022-09-20T03:36:03.436Z,100623.89
2022-09-20T03:38:51.638Z,100625.14
2022-09-20T03:41:33.347Z,100626.23
2022-09-20T03:44:21.757Z,100625.92
2022-09-20T03:47:04.446Z,100628.33
2022-09-20T03:50:11.686Z,100632.79
2022-09-20T03:53:07.977Z,100631.80
2022-09-20T03:56:19.899Z,100634.56
2022-09-20T03:59:13.323Z,100638.34
2022-09-20T04:02:04.308Z,100640.91
2022-09-20T04:04:48.007Z,100639.70
2022-09-20T04:07:25.607Z,100644.77
2022-09-20T04:10:25.785Z,100651.14
2022-09-20T04:13:16.949Z,100654.29
2022-09-20T04:16:04.458Z,100657.45
2022-09-20T04:18:44.605Z,100660.36
2022-09-20T04:21:23.862Z,100657.67
2022-09-20T04:24:03.061Z,100662.45
2022-09-20T04:26:42.318Z,100663.61
2022-09-20T04:29:28.196Z,100662.23
2022-09-20T04:32:04.797Z,100664.05
2022-09-20T04:34:59.658Z,100660.96
2022-09-20T04:37:36.286Z,100665.09
2022-09-20T04:40:26.096Z,100671.86
2022-09-20T04:43:33.108Z,100670.14
2022-09-20T04:46:36.937Z,100675.92
2022-09-20T04:49:44.717Z,100674.35
2022-09-20T04:52:35.304Z,100670.15
2022-09-20T04:55:37.797Z,100671.63
2022-09-20T04:58:28.283Z,100679.86
2022-09-20T05:01:29.313Z,100681.11
2022-09-20T05:04:36.998Z,100677.02
2022-09-20T05:07:28.250Z,100684.46
2022-09-20T05:10:17.606Z,100689.46
2022-09-20T05:13:05.702Z,100692.21
2022-09-20T05:15:45.566Z,100694.83
2022-09-20T05:18:39.623Z,100698.14
2022-09-20T05:21:47.422Z,100706.39
2022-09-20T05:24:52.759Z,100710.92
2022-09-20T05:27:40.771Z,100713.05
2022-09-20T05:30:38.073Z,100720.65
2022-09-20T05:33:20.509Z,100719.44
2022-09-20T05:36:04.899Z,100724.48
2022-09-20T05:38:48.425Z,100730.77
2022-09-20T05:41:32.004Z,100729.08
2022-09-20T05:44:19.731Z,100729.11
2022-09-20T05:47:05.235Z,100730.67
2022-09-20T05:49:53.872Z,100730.38
2022-09-20T05:52:44.459Z,100730.11
2022-09-20T05:55:30.401Z,100735.82
2022-09-20T05:58:17.357Z,100742.88
2022-09-20T06:00:56.267Z,100740.67
2022-09-20T06:03:37.660Z,100743.81
2022-09-20T06:06:21.633Z,100742.21
2022-09-20T06:09:17.113Z,100750.11
2022-09-20T06:12:02.567Z,100750.30
2022-09-20T06:14:47.669Z,100748.96
2022-09-20T06:17:58.248Z,100748.67
2022-09-20T06:20:35.307Z,100749.02
2022-09-20T06:23:10.668Z,100748.15
2022-09-20T06:25:48.340Z,100752.54
2022-09-20T06:28:22.379Z,100750.48
2022-09-20T06:30:56.011Z,100751.94
2022-09-20T06:33:30.300Z,100752.33
2022-09-20T06:36:22.045Z,100756.71
2022-09-20T06:39:21.169Z,100754.71
2022-09-20T06:41:52.924Z,100756.86
2022-09-20T06:44:24.667Z,100761.72
2022-09-20T06:46:56.434Z,100765.70
2022-09-20T06:49:29.289Z,100760.79
2022-09-20T06:52:00.978Z,100762.80
2022-09-20T06:54:32.961Z,100765.27
2022-09-20T06:57:07.044Z,100766.27
2022-09-20T06:59:38.837Z,100771.80
2022-09-20T07:02:11.101Z,100777.41
2022-09-20T07:04:43.760Z,100776.50
2022-09-20T07:07:19.346Z,100775.88
2022-09-20T07:09:51.325Z,100778.98
2022-09-20T07:12:23.029Z,100779.41
2022-09-20T07:14:56.016Z,100781.40
2022-09-20T07:17:27.712Z,100783.53
2022-09-20T07:20:00.031Z,100788.61
2022-09-20T07:22:31.815Z,100791.85
2022-09-20T07:25:04.494Z,100793.01
2022-09-20T07:27:36.222Z,100798.67
2022-09-20T07:30:13.165Z,100800.52
2022-09-20T07:32:45.004Z,100801.84
2022-09-20T07:35:17.361Z,100802.84
2022-09-20T07:37:49.114Z,100799.91
2022-09-20T07:40:27.719Z,100805.81
2022-09-20T07:43:00.230Z,100808.56
2022-09-20T07:45:32.339Z,100814.65
2022-09-20T07:48:05.448Z,100822.09
2022-09-20T07:50:38.293Z,100819.43
2022-09-20T07:53:10.223Z,100822.79
2022-09-20T07:55:42.063Z,100824.19
2022-09-20T07:58:13.736Z,100835.77
2022-09-20T08:00:47.153Z,100830.36
2022-09-20T08:03:18.996Z,100828.70
2022-09-20T08:05:50.933Z,100829.93
2022-09-20T08:08:22.589Z,100827.19
2022-09-20T08:11:07.344Z,100831.39
2022-09-20T08:16:38.777Z,100839.05
2022-09-20T08:19:15.187Z,100834.60
2022-09-20T08:21:47.901Z,100837.78
2022-09-20T08:24:19.944Z,100843.91
2022-09-20T08:26:51.814Z,100848.88
2022-09-20T08:29:23.983Z,100851.55
2022-09-20T08:31:59.133Z,100853.83
2022-09-20T08:34:30.996Z,100857.48
2022-09-20T08:37:02.729Z,100859.31
2022-09-20T08:42:39.078Z,100859.16
2022-09-20T08:45:34.605Z,100860.64
2022-09-20T08:48:14.529Z,100856.71
2022-09-20T08:50:46.278Z,100860.02
2022-09-20T08:53:21.506Z,100863.38
2022-09-20T08:55:53.290Z,100863.58
2022-09-20T08:58:25.681Z,100863.34
2022-09-20T09:00:58.852Z,100861.52
2022-09-20T09:03:30.799Z,100856.71
2022-09-20T09:06:04.141Z,100861.98
2022-09-20T09:08:40.363Z,100862.17
2022-09-20T09:11:17.328Z,100860.20
2022-09-20T09:13:53.343Z,100860.05
2022-09-20T09:16:34.965Z,100856.81
2022-09-20T09:19:34.532Z,100863.65
2022-09-20T09:22:08.234Z,100863.64
2022-09-20T09:24:40.930Z,100860.75
2022-09-20T09:27:18.076Z,100857.05
2022-09-20T09:29:54.279Z,100856.83
2022-09-20T09:32:29.193Z,100856.17
2022-09-20T09:35:24.484Z,100860.48
2022-09-20T09:38:00.877Z,100860.67
2022-09-20T09:40:35.423Z,100854.64
2022-09-20T09:43:08.093Z,100858.15
2022-09-20T09:45:41.174Z,100854.59
2022-09-20T09:48:24.465Z,100859.63
2022-09-20T09:53:56.687Z,100848.83
2022-09-20T09:56:40.039Z,100850.46
2022-09-20T09:59:34.521Z,100850.34
2022-09-20T10:02:21.710Z,100854.19
2022-09-20T10:05:02.699Z,100852.14
2022-09-20T10:07:46.292Z,100850.09
2022-09-20T10:10:31.832Z,100851.17
2022-09-20T10:13:15.955Z,100852.87
2022-09-20T10:15:57.450Z,100852.87
2022-09-20T10:18:48.923Z,100849.07
2022-09-20T10:21:40.805Z,100849.58
2022-09-20T10:24:23.429Z,100847.70
2022-09-20T10:27:09.489Z,100845.16
2022-09-20T10:29:58.148Z,100845.77
2022-09-20T10:32:56.117Z,100844.42
2022-09-20T10:35:38.870Z,100849.46
2022-09-20T10:38:19.918Z,100848.89
2022-09-20T10:41:21.808Z,100846.46
2022-09-20T10:44:18.485Z,100847.88
2022-09-20T10:46:58.486Z,100846.56
2022-09-20T10:49:37.270Z,100849.86
2022-09-20T10:52:24.119Z,100854.67
2022-09-20T10:55:14.810Z,100853.23
2022-09-20T10:58:07.891Z,100852.52
2022-09-20T11:00:51.685Z,100849.88
2022-09-20T11:03:39.799Z,100846.92
2022-09-20T11:06:21.392Z,100845.16
2022-09-20T11:08:58.637Z,100848.45
2022-09-20T11:11:36.967Z,100856.31
2022-09-20T11:14:12.910Z,100874.11
2022-09-20T11:16:51.369Z,100893.89
2022-09-20T11:19:33.009Z,100905.80
2022-09-20T11:22:09.994Z,100912.92
2022-09-20T11:24:46.411Z,100917.44
2022-09-20T11:27:29.778Z,100916.60
2022-09-20T11:30:11.401Z,100922.22
2022-09-20T11:32:48.410Z,100921.78
2022-09-20T11:35:30.295Z,100927.30
2022-09-20T11:38:11.533Z,100931.56
2022-09-20T11:40:49.421Z,100931.09
2022-09-20T11:43:22.389Z,100929.90
2022-09-20T11:46:02.612Z,100930.58
2022-09-20T11:48:41.148Z,100928.17
2022-09-20T11:51:40.940Z,100925.20
2022-09-20T11:54:34.129Z,100925.13
2022-09-20T11:57:08.113Z,100925.14
2022-09-20T11:59:42.599Z,100924.17
2022-09-20T12:02:23.288Z,100921.45
2022-09-20T12:04:56.089Z,100921.76
2022-09-20T12:07:31.502Z,100921.42
2022-09-20T12:10:13.036Z,100917.33
2022-09-20T12:12:47.914Z,100922.52
2022-09-20T12:15:29.054Z,100921.34
2022-09-20T12:18:25.627Z,100922.10
2022-09-20T12:21:20.921Z,100918.80
2022-09-20T12:24:31.381Z,100918.49
2022-09-20T12:27:22.645Z,100918.59
2022-09-20T12:30:17.482Z,100919.02
2022-09-20T12:32:55.081Z,100920.63
2022-09-20T12:36:15.034Z,100918.31
2022-09-20T12:39:01.472Z,100917.29
2022-09-20T12:41:48.843Z,100915.77
2022-09-20T12:44:33.664Z,100915.42
2022-09-20T12:47:08.471Z,100920.21
2022-09-20T12:50:01.974Z,100916.29
2022-09-20T12:53:01.167Z,100923.36
2022-09-20T12:55:46.920Z,100924.02
2022-09-20T12:58:28.852Z,100927.60
2022-09-20T13:01:32.935Z,100927.05
2022-09-20T13:04:40.063Z,100931.09
2022-09-20T13:07:42.734Z,100932.14
2022-09-20T13:10:31.066Z,100932.40
2022-09-20T13:13:12.256Z,100932.16
2022-09-20T13:15:51.723Z,100936.41
2022-09-20T13:18:26.180Z,100935.69
2022-09-20T13:21:00.426Z,100936.54
2022-09-20T13:23:38.253Z,100937.72
2022-09-20T13:26:13.229Z,100938.79
2022-09-20T13:28:52.450Z,100939.91
2022-09-20T13:31:30.065Z,100945.19
2022-09-20T13:34:22.586Z,100940.70
2022-09-20T13:36:59.423Z,100938.83
2022-09-20T13:39:37.344Z,100942.29
2022-09-20T13:42:16.385Z,100939.02
2022-09-20T13:44:50.128Z,100940.73
2022-09-20T13:47:29.450Z,100937.11
2022-09-20T13:50:25.705Z,100935.10
2022-09-20T13:52:59.497Z,100937.27
2022-09-20T13:55:33.897Z,100931.48
2022-09-20T13:58:08.546Z,100937.84
2022-09-20T14:00:48.716Z,100932.58
2022-09-20T14:03:21.971Z,100934.73
2022-09-20T14:05:56.145Z,100934.60
2022-09-20T14:08:32.776Z,100932.71
2022-09-20T14:11:14.704Z,100930.80
2022-09-20T14:13:48.681Z,100933.77
2022-09-20T14:16:22.422Z,100931.10
2022-09-20T14:18:54.440Z,100935.35
2022-09-20T14:21:28.917Z,100934.94
2022-09-20T14:24:04.185Z,100935.92
2022-09-20T14:26:38.003Z,100938.91
2022-09-20T14:29:38.817Z,100935.62
2022-09-20T14:32:23.917Z,100938.69
2022-09-20T14:35:02.643Z,100935.44
2022-09-20T14:37:38.402Z,100938.73
2022-09-20T14:40:23.796Z,100935.17
2022-09-20T14:42:58.279Z,100932.20
2022-09-20T14:45:33.871Z,100945.77
2022-09-20T14:48:27.541Z,100944.02
2022-09-20T14:51:23.115Z,100942.36
2022-09-20T14:54:16.318Z,100946.13
2022-09-20T14:56:53.177Z,100949.15
2022-09-20T14:59:27.538Z,100954.88
2022-09-20T15:02:03.510Z,100957.40
2022-09-20T15:04:38.012Z,100961.75
2022-09-20T15:07:11.872Z,100961.52
2022-09-20T15:09:43.634Z,100957.57
2022-09-20T15:12:17.267Z,100956.89
2022-09-20T15:14:49.681Z,100963.63
2022-09-20T15:17:23.612Z,100964.83
2022-09-20T15:19:55.176Z,100964.54
2022-09-20T15:22:27.552Z,100966.61
2022-09-20T15:24:59.082Z,100970.02
2022-09-20T15:27:30.632Z,100975.28
2022-09-20T15:30:02.202Z,100976.07
2022-09-20T15:32:33.738Z,100978.61
2022-09-20T15:35:06.025Z,100979.09
2022-09-20T15:37:37.845Z,100977.04
2022-09-20T15:40:24.610Z,100980.23
2022-09-20T15:43:00.114Z,100984.16
2022-09-20T15:45:31.909Z,100984.27
2022-09-20T15:48:04.142Z,100991.90
2022-09-20T15:50:39.007Z,100992.56
2022-09-20T15:53:12.501Z,100999.40
2022-09-20T15:55:44.664Z,101004.34
2022-09-20T15:58:16.254Z,101005.06
2022-09-20T16:00:50.241Z,101007.85
2022-09-20T16:03:21.980Z,101010.38
2022-09-20T16:06:04.576Z,101012.95
2022-09-20T16:08:38.019Z,101013.73
2022-09-20T16:11:12.135Z,101018.97
2022-09-20T16:13:43.697Z,101021.34
2022-09-20T16:16:16.268Z,101025.45
2022-09-20T16:19:06.085Z,101027.19
2022-09-20T16:21:40.259Z,101023.09
2022-09-20T16:24:13.287Z,101027.79
2022-09-20T16:26:45.042Z,101030.05
2022-09-20T16:29:17.050Z,101028.64
2022-09-20T16:31:51.143Z,101027.03
2022-09-20T16:34:26.383Z,101029.38
2022-09-20T16:37:00.806Z,101033.86
2022-09-20T16:39:33.519Z,101036.03
2022-09-20T16:42:08.806Z,101034.96
2022-09-20T16:44:42.134Z,101036.98
2022-09-20T16:47:18.776Z,101040.31
2022-09-20T16:49:50.643Z,101044.96
2022-09-20T16:52:24.220Z,101048.13
2022-09-20T16:54:56.184Z,101047.15
2022-09-20T16:57:28.059Z,101055.13
2022-09-20T17:00:00.303Z,101059.30
2022-09-20T17:02:31.960Z,101062.09
2022-09-20T17:05:03.579Z,101070.34
2022-09-20T17:07:35.258Z,101073.48
2022-09-20T17:10:09.756Z,101072.29
2022-09-20T17:12:44.346Z,101074.84
2022-09-20T17:15:16.618Z,101073.77
2022-09-20T17:17:48.463Z,101077.46
2022-09-20T17:20:27.121Z,101086.34
2022-09-20T17:22:59.557Z,101090.02
2022-09-20T17:25:31.598Z,101096.05
2022-09-20T17:28:03.690Z,101099.23
2022-09-20T17:30:35.220Z,101104.02
2022-09-20T17:33:08.481Z,101103.79
2022-09-20T17:35:40.002Z,101106.52
2022-09-20T17:38:12.304Z,101110.66
2022-09-20T17:40:43.821Z,101112.45
2022-09-20T17:43:16.290Z,101113.33
2022-09-20T17:45:47.888Z,101117.49
2022-09-20T17:48:23.174Z,101118.57
2022-09-20T17:51:00.761Z,101124.19
2022-09-20T17:53:33.954Z,101128.13
2022-09-20T17:56:06.363Z,101126.10
2022-09-20T17:58:38.059Z,101127.49
2022-09-20T18:01:12.890Z,101129.70
2022-09-20T18:03:46.699Z,101129.71
2022-09-20T18:06:20.761Z,101135.36
2022-09-20T18:08:53.798Z,101142.92
2022-09-20T18:11:28.558Z,101147.61
2022-09-20T18:14:00.542Z,101151.46
2022-09-20T18:16:33.455Z,101154.34
2022-09-20T18:19:05.968Z,101157.10
2022-09-20T18:21:39.186Z,101160.58
2022-09-20T18:24:12.397Z,101162.35
2022-09-20T18:26:44.657Z,101169.31
2022-09-20T18:29:18.328Z,101171.89
2022-09-20T18:31:52.327Z,101169.81
2022-09-20T18:34:25.541Z,101173.81
2022-09-20T18:36:59.175Z,101178.92
2022-09-20T18:39:32.846Z,101180.54
2022-09-20T18:42:05.173Z,101181.48
2022-09-20T18:44:38.182Z,101184.17
2022-09-20T18:47:09.870Z,101189.39
2022-09-20T18:49:41.484Z,101193.91
2022-09-20T18:52:16.341Z,101196.57
2022-09-20T18:54:48.946Z,101199.64
2022-09-20T18:57:23.351Z,101203.34
2022-09-20T19:00:03.341Z,101205.60
2022-09-20T19:02:58.369Z,101207.51
2022-09-20T19:05:36.256Z,101207.59
2022-09-20T19:08:21.739Z,101209.05
2022-09-20T19:10:57.583Z,101213.13
2022-09-20T19:13:41.170Z,101211.85
2022-09-20T19:16:20.755Z,101212.80
2022-09-20T19:19:10.049Z,101215.27
2022-09-20T19:21:57.060Z,101217.54
2022-09-20T19:24:46.762Z,101222.27
2022-09-20T19:27:18.847Z,101224.66
2022-09-20T19:29:52.778Z,101221.30
2022-09-20T19:32:28.247Z,101226.34
2022-09-20T19:35:02.436Z,101223.91
2022-09-20T19:37:42.424Z,101220.02
2022-09-20T19:40:35.200Z,101223.71
2022-09-20T19:43:24.579Z,101228.06
2022-09-20T19:46:05.920Z,101232.52
2022-09-20T19:48:41.114Z,101238.52
2022-09-20T19:51:15.241Z,101245.19
2022-09-20T19:53:47.711Z,101242.45
2022-09-20T19:56:26.606Z,101243.05
2022-09-20T19:59:00.842Z,101243.31
2022-09-20T20:01:33.486Z,101242.93
2022-09-20T20:04:11.300Z,101246.55
2022-09-20T20:06:48.609Z,101247.92
2022-09-20T20:09:27.948Z,101253.65
2022-09-20T20:12:06.285Z,101254.13
2022-09-20T20:14:50.181Z,101260.02
2022-09-20T20:17:33.748Z,101263.23
2022-09-20T20:20:22.603Z,101264.40
2022-09-20T20:23:21.131Z,101266.30
2022-09-20T20:26:00.218Z,101267.17
2022-09-20T20:28:31.807Z,101273.42
2022-09-20T20:31:05.783Z,101275.61
2022-09-20T20:33:37.337Z,101278.20
2022-09-20T20:36:11.329Z,101282.80
2022-09-20T20:38:46.382Z,101281.23
2022-09-20T20:41:20.507Z,101285.98
2022-09-20T20:43:57.190Z,101282.95
2022-09-20T20:46:29.215Z,101283.79
2022-09-20T20:49:00.849Z,101285.85
2022-09-20T20:51:34.724Z,101289.88
2022-09-20T20:54:06.688Z,101292.97
2022-09-20T20:56:38.729Z,101291.27
2022-09-20T20:59:10.387Z,101298.92
2022-09-20T21:01:44.756Z,101299.95
2022-09-20T21:04:16.977Z,101301.61
2022-09-20T21:06:50.262Z,101301.46
2022-09-20T21:09:21.768Z,101302.38
2022-09-20T21:11:56.602Z,101305.64
2022-09-20T21:14:34.715Z,101303.42
2022-09-20T21:17:06.924Z,101306.09
2022-09-20T21:19:38.461Z,101302.41
2022-09-20T21:22:10.810Z,101303.29
2022-09-20T21:24:42.373Z,101306.04
2022-09-20T21:27:13.966Z,101306.42
2022-09-20T21:29:45.523Z,101309.20
2022-09-20T21:32:17.096Z,101310.63
2022-09-20T21:34:48.660Z,101310.65
2022-09-20T21:37:20.542Z,101314.73
2022-09-20T21:39:52.275Z,101318.45
2022-09-20T21:42:25.595Z,101322.05
2022-09-20T21:44:57.132Z,101325.16
2022-09-20T21:47:28.707Z,101318.83
2022-09-20T21:50:00.899Z,101323.55
2022-09-20T21:52:33.331Z,101325.58
2022-09-20T21:55:07.035Z,101324.98
2022-09-20T21:57:38.592Z,101324.79
2022-09-20T22:00:13.469Z,101325.37
2022-09-20T22:02:48.378Z,101323.70
2022-09-20T22:05:20.518Z,101328.31
2022-09-20T22:07:52.101Z,101326.51
2022-09-20T22:10:23.634Z,101327.73
2022-09-20T22:12:57.716Z,101329.83
2022-09-20T22:15:29.263Z,101331.52
2022-09-20T22:18:00.836Z,101337.85
2022-09-20T22:20:32.418Z,101338.48
2022-09-20T22:23:04.902Z,101340.95
2022-09-20T22:25:36.751Z,101342.73
2022-09-20T22:28:08.443Z,101345.38
2022-09-20T22:30:40.072Z,101346.08
2022-09-20T22:33:11.762Z,101346.48
2022-09-20T22:35:47.612Z,101349.34
2022-09-20T22:38:19.530Z,101346.21
2022-09-20T22:40:59.015Z,101348.92
2022-09-20T22:43:32.756Z,101348.17
2022-09-20T22:46:09.009Z,101349.35
2022-09-20T22:48:41.822Z,101349.30
2022-09-20T22:51:15.182Z,101349.06
2022-09-20T22:53:48.562Z,101345.97
2022-09-20T22:56:22.355Z,101346.99
2022-09-20T22:58:56.374Z,101348.07
2022-09-20T23:01:29.956Z,101348.95
2022-09-20T23:04:04.494Z,101348.86
2022-09-20T23:06:37.871Z,101351.38
2022-09-20T23:09:11.221Z,101352.08
2022-09-20T23:11:43.822Z,101354.42
2022-09-20T23:14:17.999Z,101351.31
2022-09-20T23:16:50.914Z,101354.45
2022-09-20T23:19:22.536Z,101354.55
2022-09-20T23:21:54.103Z,101356.45
2022-09-20T23:24:26.694Z,101357.69
2022-09-20T23:26:58.288Z,101355.26
2022-09-20T23:29:30.151Z,101354.48
2022-09-20T23:32:01.825Z,101353.23
2022-09-20T23:34:35.187Z,101357.64
2022-09-20T23:37:07.680Z,101361.28
2022-09-20T23:39:39.663Z,101362.55
2022-09-20T23:42:11.250Z,101360.66
2022-09-20T23:44:44.516Z,101360.55
2022-09-20T23:47:16.141Z,101363.52
2022-09-20T23:49:48.522Z,101363.45
2022-09-20T23:52:20.009Z,101362.36
2022-09-20T23:54:52.343Z,101362.40
2022-09-20T23:57:23.898Z,101362.94
2022-09-20T23:59:55.441Z,101362.55
